sensor_id;sensor_type;location;lat;lon;timestamp;pressure;altitude;pressure_sealevel;temperature;humidity
82672;BME280;72378;52.468;13.432;2023-12-14T00:00:25;100122.94;;;8.86;70.36
82672;BME280;72378;52.468;13.432;2023-12-14T00:02:52;100119.22;;;9.16;69.66
82672;BME280;72378;52.468;13.432;2023-12-14T00:05:18;100122.69;;;8.58;71.11
82672;BME280;72378;52.468;13.432;2023-12-14T00:07:46;100122.44;;;8.68;70.96
82672;BME280;72378;52.468;13.432;2023-12-14T00:10:13;100136.31;;;8.80;70.09
82672;BME280;72378;52.468;13.432;2023-12-14T00:12:39;100135.56;;;8.86;70.14
82672;BME280;72378;52.468;13.432;2023-12-14T00:15:07;100128.94;;;8.73;70.55
82672;BME280;72378;52.468;13.432;2023-12-14T00:17:34;100138.81;;;8.81;70.84
82672;BME280;72378;52.468;13.432;2023-12-14T00:19:59;100145.03;;;8.67;71.57
82672;BME280;72378;52.468;13.432;2023-12-14T00:22:26;100155.09;;;8.36;71.86
82672;BME280;72378;52.468;13.432;2023-12-14T00:24:54;100156.44;;;8.32;72.54
82672;BME280;72378;52.468;13.432;2023-12-14T00:27:21;100168.31;;;8.60;71.89
82672;BME280;72378;52.468;13.432;2023-12-14T00:29:47;100163.41;;;8.63;71.58
82672;BME280;72378;52.468;13.432;2023-12-14T00:32:14;100172.44;;;8.33;72.27
82672;BME280;72378;52.468;13.432;2023-12-14T00:34:40;100172.31;;;8.27;72.30
82672;BME280;72378;52.468;13.432;2023-12-14T00:37:07;100178.88;;;8.47;71.47
82672;BME280;72378;52.468;13.432;2023-12-14T00:39:33;100187.00;;;8.61;70.34
82672;BME280;72378;52.468;13.432;2023-12-14T00:42:01;100181.75;;;8.68;70.03
82672;BME280;72378;52.468;13.432;2023-12-14T00:44:28;100189.81;;;8.31;71.21
82672;BME280;72378;52.468;13.432;2023-12-14T00:46:54;100193.63;;;8.36;71.64
82672;BME280;72378;52.468;13.432;2023-12-14T00:49:23;100195.06;;;8.47;70.87
82672;BME280;72378;52.468;13.432;2023-12-14T00:51:50;100193.31;;;8.54;70.75
82672;BME280;72378;52.468;13.432;2023-12-14T00:54:16;100192.19;;;8.26;71.35
82672;BME280;72378;52.468;13.432;2023-12-14T00:56:43;100211.66;;;8.36;70.34
82672;BME280;72378;52.468;13.432;2023-12-14T00:59:11;100208.78;;;8.37;70.40
82672;BME280;72378;52.468;13.432;2023-12-14T01:01:37;100210.00;;;8.72;69.67
82672;BME280;72378;52.468;13.432;2023-12-14T01:04:04;100209.50;;;8.54;70.58
82672;BME280;72378;52.468;13.432;2023-12-14T01:06:31;100215.75;;;7.93;72.36
82672;BME280;72378;52.468;13.432;2023-12-14T01:08:57;100222.13;;;7.92;71.59
82672;BME280;72378;52.468;13.432;2023-12-14T01:11:24;100224.16;;;7.98;71.71
82672;BME280;72378;52.468;13.432;2023-12-14T01:13:50;100225.19;;;8.20;71.48
82672;BME280;72378;52.468;13.432;2023-12-14T01:16:18;100237.19;;;8.40;70.09
82672;BME280;72378;52.468;13.432;2023-12-14T01:18:45;100239.72;;;8.64;69.49
82672;BME280;72378;52.468;13.432;2023-12-14T01:21:11;100238.81;;;8.49;69.88
82672;BME280;72378;52.468;13.432;2023-12-14T01:23:38;100251.22;;;8.35;69.91
82672;BME280;72378;52.468;13.432;2023-12-14T01:26:05;100256.00;;;8.25;69.26
82672;BME280;72378;52.468;13.432;2023-12-14T01:28:31;100254.16;;;8.26;69.32
82672;BME280;72378;52.468;13.432;2023-12-14T01:30:58;100257.94;;;8.01;70.06
82672;BME280;72378;52.468;13.432;2023-12-14T01:33:26;100258.50;;;8.27;70.07
82672;BME280;72378;52.468;13.432;2023-12-14T01:35:52;100263.06;;;8.26;69.52
82672;BME280;72378;52.468;13.432;2023-12-14T01:38:19;100262.41;;;8.47;69.24
82672;BME280;72378;52.468;13.432;2023-12-14T01:40:45;100272.00;;;8.19;70.54
82672;BME280;72378;52.468;13.432;2023-12-14T01:43:12;100275.59;;;8.42;70.37
82672;BME280;72378;52.468;13.432;2023-12-14T01:45:38;100277.56;;;8.48;69.92
82672;BME280;72378;52.468;13.432;2023-12-14T01:48:05;100272.66;;;8.29;70.06
82672;BME280;72378;52.468;13.432;2023-12-14T01:50:33;100285.06;;;8.60;69.45
82672;BME280;72378;52.468;13.432;2023-12-14T01:52:59;100283.13;;;8.46;69.69
82672;BME280;72378;52.468;13.432;2023-12-14T01:55:26;100283.78;;;8.18;70.41
82672;BME280;72378;52.468;13.432;2023-12-14T01:57:53;100292.81;;;8.33;69.41
82672;BME280;72378;52.468;13.432;2023-12-14T02:00:28;100288.84;;;8.13;69.63
82672;BME280;72378;52.468;13.432;2023-12-14T02:02:56;100296.75;;;8.14;70.87
82672;BME280;72378;52.468;13.432;2023-12-14T02:05:23;100298.81;;;8.12;69.33
82672;BME280;72378;52.468;13.432;2023-12-14T02:07:51;100300.56;;;8.36;69.67
82672;BME280;72378;52.468;13.432;2023-12-14T02:10:17;100303.22;;;8.05;70.07
82672;BME280;72378;52.468;13.432;2023-12-14T02:12:44;100303.13;;;7.83;71.00
82672;BME280;72378;52.468;13.432;2023-12-14T02:15:11;100309.84;;;7.87;70.95
82672;BME280;72378;52.468;13.432;2023-12-14T02:17:37;100309.34;;;8.22;69.59
82672;BME280;72378;52.468;13.432;2023-12-14T02:20:05;100302.13;;;7.76;70.60
82672;BME280;72378;52.468;13.432;2023-12-14T02:22:40;100306.34;;;8.17;69.63
82672;BME280;72378;52.468;13.432;2023-12-14T02:25:15;100305.72;;;8.07;70.59
82672;BME280;72378;52.468;13.432;2023-12-14T02:27:42;100302.94;;;7.84;71.55
82672;BME280;72378;52.468;13.432;2023-12-14T02:30:09;100308.47;;;8.29;69.45
82672;BME280;72378;52.468;13.432;2023-12-14T02:32:36;100309.56;;;7.74;70.53
82672;BME280;72378;52.468;13.432;2023-12-14T02:35:04;100307.78;;;7.97;70.34
82672;BME280;72378;52.468;13.432;2023-12-14T02:37:31;100313.88;;;7.83;70.58
82672;BME280;72378;52.468;13.432;2023-12-14T02:39:59;100316.34;;;8.00;69.29
82672;BME280;72378;52.468;13.432;2023-12-14T02:42:26;100315.88;;;7.97;70.16
82672;BME280;72378;52.468;13.432;2023-12-14T02:44:53;100318.59;;;7.89;70.15
82672;BME280;72378;52.468;13.432;2023-12-14T02:47:20;100321.97;;;7.83;70.31
82672;BME280;72378;52.468;13.432;2023-12-14T02:49:46;100322.03;;;7.67;70.51
82672;BME280;72378;52.468;13.432;2023-12-14T02:52:13;100328.97;;;8.00;69.17
82672;BME280;72378;52.468;13.432;2023-12-14T02:54:39;100330.28;;;8.12;69.14
82672;BME280;72378;52.468;13.432;2023-12-14T02:57:07;100327.13;;;8.00;69.65
82672;BME280;72378;52.468;13.432;2023-12-14T02:59:34;100333.09;;;8.26;68.58
82672;BME280;72378;52.468;13.432;2023-12-14T03:02:01;100340.31;;;7.79;70.20
82672;BME280;72378;52.468;13.432;2023-12-14T03:04:27;100333.06;;;7.88;69.54
82672;BME280;72378;52.468;13.432;2023-12-14T03:06:54;100346.56;;;7.64;69.70
82672;BME280;72378;52.468;13.432;2023-12-14T03:09:21;100348.09;;;8.13;69.01
82672;BME280;72378;52.468;13.432;2023-12-14T03:11:48;100353.09;;;7.77;70.39
82672;BME280;72378;52.468;13.432;2023-12-14T03:14:16;100344.28;;;8.07;69.03
82672;BME280;72378;52.468;13.432;2023-12-14T03:16:42;100356.09;;;7.82;70.35
82672;BME280;72378;52.468;13.432;2023-12-14T03:19:09;100361.13;;;7.93;69.40
82672;BME280;72378;52.468;13.432;2023-12-14T03:21:35;100366.03;;;7.90;69.54
82672;BME280;72378;52.468;13.432;2023-12-14T03:24:02;100370.97;;;8.17;69.15
82672;BME280;72378;52.468;13.432;2023-12-14T03:26:29;100373.28;;;8.36;68.58
82672;BME280;72378;52.468;13.432;2023-12-14T03:28:56;100377.72;;;8.21;68.75
82672;BME280;72378;52.468;13.432;2023-12-14T03:31:23;100370.59;;;7.81;69.87
82672;BME280;72378;52.468;13.432;2023-12-14T03:33:50;100381.72;;;7.70;70.09
82672;BME280;72378;52.468;13.432;2023-12-14T03:36:17;100390.19;;;8.06;68.50
82672;BME280;72378;52.468;13.432;2023-12-14T03:38:43;100388.25;;;7.84;69.77
82672;BME280;72378;52.468;13.432;2023-12-14T03:41:10;100394.44;;;7.92;69.71
82672;BME280;72378;52.468;13.432;2023-12-14T03:43:36;100396.88;;;8.18;68.78
82672;BME280;72378;52.468;13.432;2023-12-14T03:46:03;100400.38;;;7.80;69.32
82672;BME280;72378;52.468;13.432;2023-12-14T03:48:32;100397.56;;;8.28;67.87
82672;BME280;72378;52.468;13.432;2023-12-14T03:51:02;100396.09;;;8.01;68.64
82672;BME280;72378;52.468;13.432;2023-12-14T03:53:29;100404.75;;;7.89;69.55
82672;BME280;72378;52.468;13.432;2023-12-14T03:55:55;100406.69;;;8.03;68.97
82672;BME280;72378;52.468;13.432;2023-12-14T03:58:22;100413.94;;;8.10;69.12
82672;BME280;72378;52.468;13.432;2023-12-14T04:00:49;100424.72;;;7.94;69.05
82672;BME280;72378;52.468;13.432;2023-12-14T04:03:15;100420.81;;;8.21;68.07
82672;BME280;72378;52.468;13.432;2023-12-14T04:05:43;100432.31;;;7.99;68.63
82672;BME280;72378;52.468;13.432;2023-12-14T04:08:10;100435.38;;;7.64;70.14
82672;BME280;72378;52.468;13.432;2023-12-14T04:10:36;100430.91;;;8.27;67.90
82672;BME280;72378;52.468;13.432;2023-12-14T04:13:03;100433.97;;;8.00;68.48
82672;BME280;72378;52.468;13.432;2023-12-14T04:15:30;100441.91;;;7.93;69.24
82672;BME280;72378;52.468;13.432;2023-12-14T04:17:56;100437.69;;;7.99;69.06
82672;BME280;72378;52.468;13.432;2023-12-14T04:20:23;100435.38;;;7.80;69.72
82672;BME280;72378;52.468;13.432;2023-12-14T04:22:51;100438.50;;;7.99;69.10
82672;BME280;72378;52.468;13.432;2023-12-14T04:25:17;100441.56;;;7.96;68.75
82672;BME280;72378;52.468;13.432;2023-12-14T04:27:44;100443.88;;;8.15;68.58
82672;BME280;72378;52.468;13.432;2023-12-14T04:30:11;100455.16;;;8.03;69.24
82672;BME280;72378;52.468;13.432;2023-12-14T04:32:37;100458.25;;;7.60;69.75
82672;BME280;72378;52.468;13.432;2023-12-14T04:35:05;100460.41;;;7.88;69.67
82672;BME280;72378;52.468;13.432;2023-12-14T04:37:32;100467.53;;;7.65;69.96
82672;BME280;72378;52.468;13.432;2023-12-14T04:40:00;100466.34;;;7.60;70.70
82672;BME280;72378;52.468;13.432;2023-12-14T04:42:28;100466.97;;;7.86;69.25
82672;BME280;72378;52.468;13.432;2023-12-14T04:44:55;100474.22;;;7.37;71.33
82672;BME280;72378;52.468;13.432;2023-12-14T04:47:21;100473.56;;;7.59;69.92
82672;BME280;72378;52.468;13.432;2023-12-14T04:49:49;100480.47;;;7.62;70.56
82672;BME280;72378;52.468;13.432;2023-12-14T04:52:16;100476.75;;;7.46;71.26
82672;BME280;72378;52.468;13.432;2023-12-14T04:54:42;100481.13;;;7.64;70.76
82672;BME280;72378;52.468;13.432;2023-12-14T04:57:10;100483.31;;;7.52;70.74
82672;BME280;72378;52.468;13.432;2023-12-14T04:59:37;100485.50;;;7.57;70.70
82672;BME280;72378;52.468;13.432;2023-12-14T05:02:05;100489.88;;;7.82;70.12
82672;BME280;72378;52.468;13.432;2023-12-14T05:04:32;100485.81;;;7.86;69.42
82672;BME280;72378;52.468;13.432;2023-12-14T05:06:58;100484.84;;;7.79;69.58
82672;BME280;72378;52.468;13.432;2023-12-14T05:09:25;100496.59;;;7.70;70.64
82672;BME280;72378;52.468;13.432;2023-12-14T05:11:51;100510.72;;;7.88;68.58
82672;BME280;72378;52.468;13.432;2023-12-14T05:14:19;100511.72;;;7.95;69.10
82672;BME280;72378;52.468;13.432;2023-12-14T05:16:46;100512.06;;;7.76;69.63
82672;BME280;72378;52.468;13.432;2023-12-14T05:19:13;100514.94;;;7.90;69.85
82672;BME280;72378;52.468;13.432;2023-12-14T05:21:39;100520.00;;;7.85;69.90
82672;BME280;72378;52.468;13.432;2023-12-14T05:24:06;100528.22;;;8.00;69.08
82672;BME280;72378;52.468;13.432;2023-12-14T05:26:33;100534.28;;;7.78;70.09
82672;BME280;72378;52.468;13.432;2023-12-14T05:28:59;100538.16;;;7.91;69.49
82672;BME280;72378;52.468;13.432;2023-12-14T05:31:27;100544.88;;;7.87;69.91
82672;BME280;72378;52.468;13.432;2023-12-14T05:33:54;100550.72;;;7.34;71.66
82672;BME280;72378;52.468;13.432;2023-12-14T05:36:20;100556.97;;;7.99;70.05
82672;BME280;72378;52.468;13.432;2023-12-14T05:38:47;100560.50;;;7.76;70.80
82672;BME280;72378;52.468;13.432;2023-12-14T05:41:14;100572.81;;;7.86;70.37
82672;BME280;72378;52.468;13.432;2023-12-14T05:43:40;100573.97;;;7.52;71.14
82672;BME280;72378;52.468;13.432;2023-12-14T05:46:07;100577.38;;;7.94;69.68
82672;BME280;72378;52.468;13.432;2023-12-14T05:48:35;100578.69;;;7.98;69.88
82672;BME280;72378;52.468;13.432;2023-12-14T05:51:04;100586.78;;;8.38;68.45
82672;BME280;72378;52.468;13.432;2023-12-14T05:53:31;100594.53;;;8.41;68.32
82672;BME280;72378;52.468;13.432;2023-12-14T05:56:02;100585.94;;;8.05;69.41
82672;BME280;72378;52.468;13.432;2023-12-14T05:58:28;100597.72;;;7.96;69.24
82672;BME280;72378;52.468;13.432;2023-12-14T06:00:55;100589.97;;;7.85;70.14
82672;BME280;72378;52.468;13.432;2023-12-14T06:03:22;100594.16;;;7.80;69.47
82672;BME280;72378;52.468;13.432;2023-12-14T06:05:50;100592.84;;;8.00;69.52
82672;BME280;72378;52.468;13.432;2023-12-14T06:08:16;100604.75;;;7.73;69.79
82672;BME280;72378;52.468;13.432;2023-12-14T06:10:43;100605.63;;;7.98;68.82
82672;BME280;72378;52.468;13.432;2023-12-14T06:13:09;100607.59;;;7.64;70.07
82672;BME280;72378;52.468;13.432;2023-12-14T06:15:36;100603.22;;;7.46;71.65
82672;BME280;72378;52.468;13.432;2023-12-14T06:18:02;100615.03;;;7.70;70.62
82672;BME280;72378;52.468;13.432;2023-12-14T06:20:30;100620.34;;;7.53;70.94
82672;BME280;72378;52.468;13.432;2023-12-14T06:22:58;100622.25;;;7.77;69.96
82672;BME280;72378;52.468;13.432;2023-12-14T06:25:25;100620.09;;;7.89;69.59
82672;BME280;72378;52.468;13.432;2023-12-14T06:27:51;100628.81;;;7.75;70.07
82672;BME280;72378;52.468;13.432;2023-12-14T06:30:18;100629.84;;;8.06;68.96
82672;BME280;72378;52.468;13.432;2023-12-14T06:32:45;100631.31;;;7.60;69.76
82672;BME280;72378;52.468;13.432;2023-12-14T06:35:11;100636.38;;;7.71;70.71
82672;BME280;72378;52.468;13.432;2023-12-14T06:37:38;100632.38;;;7.99;69.25
82672;BME280;72378;52.468;13.432;2023-12-14T06:40:09;100632.38;;;7.99;68.93
82672;BME280;72378;52.468;13.432;2023-12-14T06:42:36;100634.72;;;7.86;70.13
82672;BME280;72378;52.468;13.432;2023-12-14T06:45:03;100649.03;;;8.11;68.52
82672;BME280;72378;52.468;13.432;2023-12-14T06:47:29;100649.03;;;7.95;69.05
82672;BME280;72378;52.468;13.432;2023-12-14T06:49:56;100654.44;;;7.95;69.33
82672;BME280;72378;52.468;13.432;2023-12-14T06:52:23;100661.69;;;8.10;68.33
82672;BME280;72378;52.468;13.432;2023-12-14T06:54:49;100655.75;;;7.75;69.37
82672;BME280;72378;52.468;13.432;2023-12-14T06:57:17;100667.38;;;7.99;69.15
82672;BME280;72378;52.468;13.432;2023-12-14T06:59:44;100665.66;;;7.82;69.19
82672;BME280;72378;52.468;13.432;2023-12-14T07:02:10;100673.44;;;8.01;69.45
82672;BME280;72378;52.468;13.432;2023-12-14T07:04:37;100659.13;;;7.93;67.98
82672;BME280;72378;52.468;13.432;2023-12-14T07:07:03;100689.69;;;8.33;67.51
82672;BME280;72378;52.468;13.432;2023-12-14T07:09:30;100692.03;;;8.28;67.77
82672;BME280;72378;52.468;13.432;2023-12-14T07:11:56;100702.78;;;7.55;70.02
82672;BME280;72378;52.468;13.432;2023-12-14T07:14:25;100700.72;;;8.14;68.27
82672;BME280;72378;52.468;13.432;2023-12-14T07:16:51;100704.78;;;8.18;68.35
82672;BME280;72378;52.468;13.432;2023-12-14T07:19:18;100710.63;;;7.90;68.98
82672;BME280;72378;52.468;13.432;2023-12-14T07:21:45;100717.59;;;8.24;67.12
82672;BME280;72378;52.468;13.432;2023-12-14T07:24:11;100717.13;;;8.29;66.89
82672;BME280;72378;52.468;13.432;2023-12-14T07:26:38;100727.97;;;7.53;69.74
82672;BME280;72378;52.468;13.432;2023-12-14T07:29:05;100725.75;;;7.91;68.77
82672;BME280;72378;52.468;13.432;2023-12-14T07:31:33;100739.97;;;8.09;68.05
82672;BME280;72378;52.468;13.432;2023-12-14T07:34:00;100739.25;;;7.99;69.42
82672;BME280;72378;52.468;13.432;2023-12-14T07:36:26;100747.66;;;7.96;69.51
82672;BME280;72378;52.468;13.432;2023-12-14T07:38:53;100757.19;;;8.32;67.87
82672;BME280;72378;52.468;13.432;2023-12-14T07:41:20;100756.66;;;8.20;67.68
82672;BME280;72378;52.468;13.432;2023-12-14T07:43:48;100759.22;;;8.38;67.13
82672;BME280;72378;52.468;13.432;2023-12-14T07:46:14;100762.13;;;8.03;68.74
82672;BME280;72378;52.468;13.432;2023-12-14T07:48:42;100756.53;;;7.80;68.86
82672;BME280;72378;52.468;13.432;2023-12-14T07:51:09;100773.41;;;7.90;69.30
82672;BME280;72378;52.468;13.432;2023-12-14T07:53:36;100757.94;;;8.00;68.03
82672;BME280;72378;52.468;13.432;2023-12-14T07:56:03;100777.84;;;8.15;67.62
82672;BME280;72378;52.468;13.432;2023-12-14T07:58:29;100781.31;;;8.00;67.75
82672;BME280;72378;52.468;13.432;2023-12-14T08:00:56;100788.34;;;7.85;68.44
82672;BME280;72378;52.468;13.432;2023-12-14T08:03:22;100781.50;;;7.98;68.55
82672;BME280;72378;52.468;13.432;2023-12-14T08:05:50;100792.22;;;8.32;67.06
82672;BME280;72378;52.468;13.432;2023-12-14T08:08:17;100793.25;;;8.31;67.22
82672;BME280;72378;52.468;13.432;2023-12-14T08:10:44;100797.16;;;8.11;68.39
82672;BME280;72378;52.468;13.432;2023-12-14T08:13:10;100794.81;;;8.16;68.22
82672;BME280;72378;52.468;13.432;2023-12-14T08:15:37;100796.00;;;8.13;67.97
82672;BME280;72378;52.468;13.432;2023-12-14T08:18:03;100800.53;;;8.05;68.52
82672;BME280;72378;52.468;13.432;2023-12-14T08:20:30;100807.22;;;8.01;68.72
82672;BME280;72378;52.468;13.432;2023-12-14T08:22:58;100812.00;;;8.15;67.20
82672;BME280;72378;52.468;13.432;2023-12-14T08:25:25;100814.31;;;8.51;66.39
82672;BME280;72378;52.468;13.432;2023-12-14T08:27:52;100822.53;;;8.26;67.00
82672;BME280;72378;52.468;13.432;2023-12-14T08:30:17;100825.56;;;8.31;67.23
82672;BME280;72378;52.468;13.432;2023-12-14T08:32:44;100830.81;;;7.99;68.75
82672;BME280;72378;52.468;13.432;2023-12-14T08:35:10;100835.31;;;7.90;67.59
82672;BME280;72378;52.468;13.432;2023-12-14T08:37:37;100838.06;;;8.06;68.40
82672;BME280;72378;52.468;13.432;2023-12-14T08:40:06;100842.09;;;8.36;66.96
82672;BME280;72378;52.468;13.432;2023-12-14T08:42:33;100853.22;;;8.41;66.28
82672;BME280;72378;52.468;13.432;2023-12-14T08:45:00;100864.19;;;8.55;66.33
82672;BME280;72378;52.468;13.432;2023-12-14T08:47:27;100870.53;;;8.05;67.12
82672;BME280;72378;52.468;13.432;2023-12-14T08:49:53;100869.16;;;8.34;66.94
82672;BME280;72378;52.468;13.432;2023-12-14T08:52:20;100875.34;;;8.19;67.03
82672;BME280;72378;52.468;13.432;2023-12-14T08:54:46;100882.56;;;8.18;66.99
82672;BME280;72378;52.468;13.432;2023-12-14T08:57:14;100869.44;;;8.65;65.86
82672;BME280;72378;52.468;13.432;2023-12-14T08:59:41;100883.41;;;8.19;66.51
82672;BME280;72378;52.468;13.432;2023-12-14T09:02:07;100891.94;;;8.40;66.10
82672;BME280;72378;52.468;13.432;2023-12-14T09:04:34;100888.13;;;8.58;65.74
82672;BME280;72378;52.468;13.432;2023-12-14T09:07:01;100886.50;;;8.24;66.80
82672;BME280;72378;52.468;13.432;2023-12-14T09:09:29;100891.66;;;8.17;67.54
82672;BME280;72378;52.468;13.432;2023-12-14T09:11:56;100899.38;;;8.12;67.66
82672;BME280;72378;52.468;13.432;2023-12-14T09:14:25;100900.66;;;8.26;66.82
82672;BME280;72378;52.468;13.432;2023-12-14T09:16:51;100911.03;;;8.21;67.53
82672;BME280;72378;52.468;13.432;2023-12-14T09:19:18;100909.63;;;8.09;67.71
82672;BME280;72378;52.468;13.432;2023-12-14T09:21:45;100922.94;;;8.44;66.47
82672;BME280;72378;52.468;13.432;2023-12-14T09:24:11;100918.34;;;8.36;66.71
82672;BME280;72378;52.468;13.432;2023-12-14T09:26:38;100921.75;;;8.38;65.77
82672;BME280;72378;52.468;13.432;2023-12-14T09:29:04;100929.38;;;8.51;65.82
82672;BME280;72378;52.468;13.432;2023-12-14T09:31:33;100928.75;;;8.23;66.77
82672;BME280;72378;52.468;13.432;2023-12-14T09:34:00;100925.50;;;8.20;67.52
82672;BME280;72378;52.468;13.432;2023-12-14T09:36:26;100938.50;;;8.24;67.59
82672;BME280;72378;52.468;13.432;2023-12-14T09:38:53;100937.06;;;7.79;68.47
82672;BME280;72378;52.468;13.432;2023-12-14T09:41:19;100942.84;;;8.17;67.85
82672;BME280;72378;52.468;13.432;2023-12-14T09:43:46;100947.50;;;8.07;66.75
82672;BME280;72378;52.468;13.432;2023-12-14T09:46:14;100948.44;;;8.57;65.61
82672;BME280;72378;52.468;13.432;2023-12-14T09:48:44;100962.25;;;8.54;66.37
82672;BME280;72378;52.468;13.432;2023-12-14T09:51:12;100966.19;;;8.09;67.26
82672;BME280;72378;52.468;13.432;2023-12-14T09:53:38;100959.47;;;7.87;68.36
82672;BME280;72378;52.468;13.432;2023-12-14T09:56:06;100963.53;;;8.17;66.75
82672;BME280;72378;52.468;13.432;2023-12-14T09:58:32;100960.31;;;7.88;68.02
82672;BME280;72378;52.468;13.432;2023-12-14T10:00:59;100950.75;;;8.19;66.60
82672;BME280;72378;52.468;13.432;2023-12-14T10:03:26;100969.50;;;8.62;65.53
82672;BME280;72378;52.468;13.432;2023-12-14T10:05:56;100967.75;;;8.19;67.23
82672;BME280;72378;52.468;13.432;2023-12-14T10:08:23;100969.16;;;8.65;65.60
82672;BME280;72378;52.468;13.432;2023-12-14T10:10:51;100969.06;;;8.75;65.19
82672;BME280;72378;52.468;13.432;2023-12-14T10:13:18;100969.59;;;8.86;64.69
82672;BME280;72378;52.468;13.432;2023-12-14T10:15:45;100978.97;;;8.74;64.40
82672;BME280;72378;52.468;13.432;2023-12-14T10:18:12;100977.81;;;8.77;64.18
82672;BME280;72378;52.468;13.432;2023-12-14T10:20:39;100984.28;;;8.58;64.80
82672;BME280;72378;52.468;13.432;2023-12-14T10:23:09;100986.72;;;8.69;64.35
82672;BME280;72378;52.468;13.432;2023-12-14T10:25:35;100982.94;;;8.54;65.38
82672;BME280;72378;52.468;13.432;2023-12-14T10:28:02;100988.75;;;8.75;65.03
82672;BME280;72378;52.468;13.432;2023-12-14T10:30:29;100984.63;;;8.55;65.51
82672;BME280;72378;52.468;13.432;2023-12-14T10:32:56;100985.69;;;8.62;65.01
82672;BME280;72378;52.468;13.432;2023-12-14T10:35:23;100995.59;;;8.61;65.09
82672;BME280;72378;52.468;13.432;2023-12-14T10:37:50;100993.69;;;8.80;64.08
82672;BME280;72378;52.468;13.432;2023-12-14T10:40:19;101006.88;;;8.57;65.86
82672;BME280;72378;52.468;13.432;2023-12-14T10:42:47;101008.88;;;8.55;65.86
82672;BME280;72378;52.468;13.432;2023-12-14T10:45:16;101017.25;;;8.44;65.49
82672;BME280;72378;52.468;13.432;2023-12-14T10:47:46;101008.81;;;7.70;67.56
82672;BME280;72378;52.468;13.432;2023-12-14T10:50:13;101023.53;;;8.52;65.98
82672;BME280;72378;52.468;13.432;2023-12-14T10:52:40;101022.34;;;8.89;64.13
82672;BME280;72378;52.468;13.432;2023-12-14T10:55:13;101023.72;;;8.93;63.78
82672;BME280;72378;52.468;13.432;2023-12-14T10:57:43;101026.97;;;9.12;63.36
82672;BME280;72378;52.468;13.432;2023-12-14T11:00:10;101028.09;;;8.94;63.45
82672;BME280;72378;52.468;13.432;2023-12-14T11:02:39;101030.19;;;8.15;66.31
82672;BME280;72378;52.468;13.432;2023-12-14T11:05:08;101034.06;;;8.38;65.71
82672;BME280;72378;52.468;13.432;2023-12-14T11:07:47;101029.19;;;7.90;65.62
82672;BME280;72378;52.468;13.432;2023-12-14T11:10:14;101038.31;;;8.82;64.11
82672;BME280;72378;52.468;13.432;2023-12-14T11:12:54;101031.84;;;8.67;64.43
82672;BME280;72378;52.468;13.432;2023-12-14T11:15:22;101037.38;;;8.91;63.65
82672;BME280;72378;52.468;13.432;2023-12-14T11:18:24;101041.53;;;8.86;63.95
82672;BME280;72378;52.468;13.432;2023-12-14T11:20:53;101043.63;;;9.00;62.50
82672;BME280;72378;52.468;13.432;2023-12-14T11:23:34;101033.03;;;9.06;62.73
82672;BME280;72378;52.468;13.432;2023-12-14T11:26:03;101041.22;;;8.89;63.62
82672;BME280;72378;52.468;13.432;2023-12-14T11:28:34;101037.34;;;8.83;64.31
82672;BME280;72378;52.468;13.432;2023-12-14T11:31:02;101049.25;;;8.73;64.23
82672;BME280;72378;52.468;13.432;2023-12-14T11:33:32;101048.19;;;9.07;62.53
82672;BME280;72378;52.468;13.432;2023-12-14T11:36:00;101049.50;;;8.61;64.27
82672;BME280;72378;52.468;13.432;2023-12-14T11:38:28;101052.63;;;8.75;63.94
82672;BME280;72378;52.468;13.432;2023-12-14T11:40:55;101059.69;;;8.42;64.86
82672;BME280;72378;52.468;13.432;2023-12-14T11:43:22;101066.13;;;8.49;65.14
82672;BME280;72378;52.468;13.432;2023-12-14T11:45:53;101063.25;;;8.76;64.78
82672;BME280;72378;52.468;13.432;2023-12-14T11:48:19;101070.97;;;9.05;63.24
82672;BME280;72378;52.468;13.432;2023-12-14T11:50:46;101073.78;;;8.95;62.89
82672;BME280;72378;52.468;13.432;2023-12-14T11:53:13;101066.59;;;8.01;66.53
82672;BME280;72378;52.468;13.432;2023-12-14T11:55:40;101076.88;;;8.41;65.94
82672;BME280;72378;52.468;13.432;2023-12-14T11:58:07;101083.28;;;8.48;64.54
82672;BME280;72378;52.468;13.432;2023-12-14T12:00:34;101094.31;;;8.29;66.02
82672;BME280;72378;52.468;13.432;2023-12-14T12:03:12;101092.22;;;8.74;63.40
82672;BME280;72378;52.468;13.432;2023-12-14T12:05:40;101097.00;;;8.54;65.18
82672;BME280;72378;52.468;13.432;2023-12-14T12:08:08;101098.38;;;8.58;64.82
82672;BME280;72378;52.468;13.432;2023-12-14T12:10:36;101106.13;;;8.61;64.74
82672;BME280;72378;52.468;13.432;2023-12-14T12:13:03;101109.50;;;8.89;63.83
82672;BME280;72378;52.468;13.432;2023-12-14T12:15:31;101109.84;;;8.94;63.66
82672;BME280;72378;52.468;13.432;2023-12-14T12:17:58;101113.28;;;9.04;62.69
82672;BME280;72378;52.468;13.432;2023-12-14T12:20:26;101110.16;;;9.25;62.39
82672;BME280;72378;52.468;13.432;2023-12-14T12:22:52;101109.75;;;9.53;61.25
82672;BME280;72378;52.468;13.432;2023-12-14T12:25:20;101114.72;;;8.91;62.69
82672;BME280;72378;52.468;13.432;2023-12-14T12:27:48;101114.28;;;9.03;62.84
82672;BME280;72378;52.468;13.432;2023-12-14T12:30:15;101119.22;;;9.16;62.33
82672;BME280;72378;52.468;13.432;2023-12-14T12:32:41;101114.59;;;9.00;61.95
82672;BME280;72378;52.468;13.432;2023-12-14T12:35:08;101122.09;;;8.55;64.17
82672;BME280;72378;52.468;13.432;2023-12-14T12:37:36;101108.47;;;8.90;63.05
82672;BME280;72378;52.468;13.432;2023-12-14T12:40:04;101132.13;;;9.38;61.31
82672;BME280;72378;52.468;13.432;2023-12-14T12:42:31;101129.31;;;8.80;62.88
82672;BME280;72378;52.468;13.432;2023-12-14T12:44:57;101134.66;;;8.72;63.63
82672;BME280;72378;52.468;13.432;2023-12-14T12:47:24;101143.78;;;8.71;63.82
82672;BME280;72378;52.468;13.432;2023-12-14T12:49:50;101146.03;;;9.17;62.58